Time;durP1;ratioP1;P1;durP2;ratioP2;P2;SDS_P1;SDS_P2;PMS_P1;PMS_P2;Temp;Humidity;BMP_temperature;BMP_pressure;BME280_temperature;BME280_humidity;BME280_pressure;Samples;Min_cycle;Max_cycle;Signal;HPM_P1;HPM_P2
2022/12/25 00:00:20;;;;;;;8.57;5.37;;;;;;;10.07;100.00;98328.69;4147546;28;20700;-91
2022/12/25 00:02:24;;;;;;;7.03;4.77;;;;;;;10.07;100.00;98333.03;4188109;28;20676;-93
2022/12/25 00:04:30;;;;;;;9.63;6.03;;;;;;;10.05;100.00;98330.53;4159402;28;20636;-93
2022/12/25 00:06:34;;;;;;;10.17;5.27;;;;;;;10.06;100.00;98331.41;4142122;28;20646;-93
2022/12/25 00:08:39;;;;;;;13.00;5.80;;;;;;;10.06;100.00;98332.22;4163717;28;20688;-93
2022/12/25 00:10:42;;;;;;;6.87;6.07;;;;;;;10.05;100.00;98335.75;4171660;28;20649;-93
2022/12/25 00:12:47;;;;;;;8.37;5.90;;;;;;;10.04;100.00;98335.84;4173008;28;20718;-94
2022/12/25 00:14:52;;;;;;;8.07;5.50;;;;;;;10.02;100.00;98335.09;4169589;28;20696;-94
2022/12/25 00:16:56;;;;;;;9.40;6.00;;;;;;;9.99;100.00;98333.53;4136172;28;20710;-92
2022/12/25 00:19:00;;;;;;;10.77;7.77;;;;;;;9.95;100.00;98339.88;4152686;28;21227;-92
2022/12/25 00:21:05;;;;;;;12.53;8.40;;;;;;;9.96;100.00;98343.31;4154419;28;20665;-95
2022/12/25 00:23:08;;;;;;;10.13;7.30;;;;;;;9.94;100.00;98342.56;4170717;28;21516;-93
2022/12/25 00:25:11;;;;;;;10.47;7.50;;;;;;;9.89;100.00;98340.22;4167675;28;20661;-94
2022/12/25 00:27:15;;;;;;;8.70;7.80;;;;;;;9.88;100.00;98333.31;4172569;28;20633;-94
2022/12/25 00:29:18;;;;;;;8.83;7.90;;;;;;;9.85;100.00;98336.13;4169242;28;20645;-93
2022/12/25 00:31:24;;;;;;;11.70;9.53;;;;;;;9.84;100.00;98331.81;4141870;28;21208;-93
2022/12/25 00:33:28;;;;;;;10.73;9.63;;;;;;;9.83;100.00;98328.50;4138644;28;20734;-93
2022/12/25 00:35:31;;;;;;;13.68;9.02;;;;;;;9.83;100.00;98323.28;4166612;28;20633;-94
2022/12/25 00:37:35;;;;;;;10.50;9.27;;;;;;;9.78;100.00;98317.53;4186640;28;20293;-93
2022/12/25 00:39:41;;;;;;;13.60;10.07;;;;;;;9.78;100.00;98317.53;4169756;28;20671;-94
2022/12/25 00:44:05;;;;;;;15.50;10.00;;;;;;;9.75;100.00;98305.53;4169309;28;20636;-93
2022/12/25 00:46:10;;;;;;;11.17;9.90;;;;;;;9.75;100.00;98307.28;4140052;28;20703;-94
2022/12/25 00:48:15;;;;;;;14.50;12.00;;;;;;;9.73;100.00;98309.16;4153804;28;21082;-95
2022/12/25 00:50:19;;;;;;;11.10;9.73;;;;;;;9.72;100.00;98310.91;4136964;28;20631;-94
2022/12/25 00:52:22;;;;;;;13.25;10.35;;;;;;;9.71;100.00;98314.47;4169263;28;20637;-93
2022/12/25 00:54:26;;;;;;;11.60;9.70;;;;;;;9.69;100.00;98312.88;4136459;28;20200;-94
2022/12/25 00:56:29;;;;;;;11.13;9.17;;;;;;;9.59;100.00;98298.75;4142196;28;20638;-94
2022/12/25 00:58:34;;;;;;;10.80;8.77;;;;;;;9.58;100.00;98297.09;4171481;28;21007;-94
2022/12/25 01:00:39;;;;;;;13.65;10.43;;;;;;;9.60;100.00;98303.03;4151274;28;21409;-93
2022/12/25 01:02:42;;;;;;;7.97;7.17;;;;;;;9.55;100.00;98305.91;4142170;28;20212;-91
2022/12/25 01:04:47;;;;;;;10.17;7.20;;;;;;;9.54;100.00;98311.22;4152344;28;21252;-93
2022/12/25 01:06:51;;;;;;;11.63;8.10;;;;;;;9.52;100.00;98313.06;4136976;28;20661;-93
2022/12/25 01:11:15;;;;;;;9.10;7.97;;;;;;;9.53;100.00;98304.31;4156087;28;20633;-94
2022/12/25 01:13:19;;;;;;;11.63;8.60;;;;;;;9.54;100.00;98306.00;4147359;28;20628;-93
2022/12/25 01:15:22;;;;;;;10.93;8.90;;;;;;;9.52;100.00;98298.28;4137731;28;20635;-95
2022/12/25 01:17:25;;;;;;;13.25;9.52;;;;;;;9.56;100.00;98304.13;4138021;28;20215;-94
2022/12/25 01:19:29;;;;;;;12.20;9.50;;;;;;;9.54;100.00;98306.81;4140431;28;20215;-92
2022/12/25 01:21:34;;;;;;;12.07;9.03;;;;;;;9.53;100.00;98302.56;4153166;28;21200;-94
2022/12/25 01:23:38;;;;;;;10.03;8.50;;;;;;;9.57;100.00;98311.03;4144912;28;20637;-94
2022/12/25 01:25:42;;;;;;;10.63;8.17;;;;;;;9.55;100.00;98313.72;4168211;28;20670;-95
2022/12/25 01:27:45;;;;;;;9.80;8.17;;;;;;;9.55;100.00;98325.91;4164654;28;20668;-91
2022/12/25 01:29:49;;;;;;;12.32;8.35;;;;;;;9.57;100.00;98311.03;4137114;28;20648;-95
2022/12/25 01:31:52;;;;;;;12.20;8.73;;;;;;;9.55;100.00;98312.88;4152973;28;20199;-93
2022/12/25 01:33:56;;;;;;;15.00;8.23;;;;;;;9.52;100.00;98319.09;4135484;28;20742;-93
2022/12/25 01:35:59;;;;;;;10.47;8.47;;;;;;;9.52;100.00;98324.31;4152914;28;20230;-92
2022/12/25 01:38:04;;;;;;;10.75;8.45;;;;;;;9.53;100.00;98325.13;4168586;28;21233;-93
2022/12/25 01:40:08;;;;;;;12.97;9.03;;;;;;;9.52;100.00;98329.53;4138936;28;20705;-94
2022/12/25 01:42:17;;;;;;;13.07;8.80;;;;;;;9.53;100.00;98330.34;4138644;28;21277;-94
2022/12/25 01:44:56;;;;;;;13.33;9.40;;;;;;;9.54;100.00;98334.63;4137959;28;20693;-94
2022/12/25 01:47:00;;;;;;;12.05;9.50;;;;;;;9.54;100.00;98342.44;4125325;28;21260;-94
2022/12/25 01:49:05;;;;;;;13.30;9.93;;;;;;;9.55;100.00;98338.94;4146003;28;20246;-95
2022/12/25 01:51:17;;;;;;;14.05;9.90;;;;;;;9.54;100.00;98347.66;4165062;28;20653;-93
2022/12/25 01:53:22;;;;;;;15.45;9.80;;;;;;;9.54;100.00;98343.28;4156200;28;20226;-95
2022/12/25 01:55:26;;;;;;;14.53;9.70;;;;;;;9.57;100.00;98357.88;4143475;28;20238;-94
2022/12/25 01:57:32;;;;;;;11.23;9.02;;;;;;;9.56;100.00;98346.66;4161346;28;20673;-94
2022/12/25 01:59:36;;;;;;;11.25;9.10;;;;;;;9.57;100.00;98337.88;4186171;28;20276;-94
2022/12/25 02:01:39;;;;;;;12.77;9.60;;;;;;;9.57;100.00;98337.88;4171508;28;20722;-93
2022/12/25 02:03:43;;;;;;;12.30;9.00;;;;;;;9.58;100.00;98338.75;4142831;28;21119;-93
2022/12/25 02:05:47;;;;;;;16.27;9.15;;;;;;;9.58;100.00;98339.56;4145931;28;20211;-93
2022/12/25 02:07:52;;;;;;;12.47;8.60;;;;;;;9.59;100.00;98332.59;4155505;28;20340;-94
2022/12/25 02:09:57;;;;;;;14.48;9.38;;;;;;;9.59;100.00;98338.66;4158870;28;20637;-92
2022/12/25 02:12:01;;;;;;;16.50;10.40;;;;;;;9.59;100.00;98343.00;4142203;28;20298;-94
2022/12/25 02:14:05;;;;;;;12.32;9.02;;;;;;;9.60;100.00;98345.50;4171874;28;20712;-95
2022/12/25 02:16:13;;;;;;;11.30;8.57;;;;;;;9.60;100.00;98347.28;4156405;28;20200;-94
2022/12/25 02:18:22;;;;;;;14.07;9.77;;;;;;;9.59;100.00;98345.59;4174587;28;20589;-94
2022/12/25 02:21:02;;;;;;;11.80;8.80;;;;;;;9.59;100.00;98353.41;4188652;28;20284;-95
2022/12/25 02:23:36;;;;;;;12.35;8.70;;;;;;;9.60;100.00;98347.28;4156418;28;20207;-95
2022/12/25 02:25:53;;;;;;;16.70;9.30;;;;;;;9.57;100.00;98343.09;4147678;28;20195;-94
2022/12/25 02:28:06;;;;;;;9.80;7.93;;;;;;;9.58;100.00;98333.53;4156879;28;20644;-93
2022/12/25 02:30:11;;;;;;;13.37;8.67;;;;;;;9.58;100.00;98334.34;4138543;28;20662;-93
2022/12/25 02:32:20;;;;;;;10.73;8.65;;;;;;;9.59;100.00;98335.19;4173843;28;20632;-95
2022/12/25 02:34:30;;;;;;;11.97;8.57;;;;;;;9.58;100.00;98320.50;4173380;28;20202;-95
2022/12/25 02:36:39;;;;;;;12.75;8.10;;;;;;;9.57;100.00;98321.44;4190581;28;21220;-93
2022/12/25 02:39:56;;;;;;;12.25;8.10;;;;;;;9.59;100.00;98329.97;4167911;28;20831;-94
2022/12/25 02:41:10;;;;;;;13.67;8.80;;;;;;;9.59;100.00;98333.44;4160177;28;20314;-93
2022/12/25 03:07:14;;;;;;;11.70;8.70;;;;;;;9.57;100.00;98326.66;4174310;28;21299;-96
2022/12/25 03:11:47;;;;;;;14.68;10.85;;;;;;;9.55;100.00;98315.50;4174152;28;20669;-92
2022/12/25 03:16:49;;;;;;;14.00;10.40;;;;;;;9.58;100.00;98323.94;4180145;28;20232;-94
2022/12/25 03:18:44;;;;;;;10.10;8.33;;;;;;;9.59;100.00;98314.34;4156151;28;20640;-95
2022/12/25 03:27:55;;;;;;;12.88;8.60;;;;;;;9.60;100.00;98296.03;4175541;28;20267;-95
2022/12/25 03:32:32;;;;;;;10.10;8.40;;;;;;;9.62;100.00;98301.16;4148272;28;21271;-96
2022/12/25 03:37:20;;;;;;;14.70;10.17;;;;;;;9.62;100.00;98295.94;4144986;28;20211;-96
2022/12/25 04:37:48;;;;;;;2.53;1.97;;;;;;;10.17;100.00;98246.38;4136634;28;20673;-94
2022/12/25 04:39:52;;;;;;;5.13;2.27;;;;;;;10.17;100.00;98241.16;4153005;28;20768;-96
2022/12/25 04:41:55;;;;;;;2.83;2.10;;;;;;;10.21;100.00;98247.00;4176782;28;20691;-95
2022/12/25 04:44:00;;;;;;;4.37;2.20;;;;;;;10.19;100.00;98244.50;4173512;28;20694;-94
2022/12/25 04:46:05;;;;;;;2.90;1.83;;;;;;;10.24;100.00;98252.88;4153006;28;21155;-95
2022/12/25 04:48:09;;;;;;;3.90;1.90;;;;;;;10.28;100.00;98254.31;4158904;28;20694;-95
2022/12/25 04:57:49;;;;;;;3.90;1.53;;;;;;;10.38;100.00;98245.81;4160190;28;20618;-95
2022/12/25 05:00:27;;;;;;;3.30;1.50;;;;;;;10.40;100.00;98237.91;4145266;28;20652;-93
2022/12/25 05:02:46;;;;;;;2.43;1.40;;;;;;;10.45;100.00;98246.28;4141095;28;20650;-92
2022/12/25 05:04:56;;;;;;;3.23;1.73;;;;;;;10.44;100.00;98232.38;4160798;28;20673;-94
2022/12/25 05:07:00;;;;;;;3.30;2.00;;;;;;;10.45;100.00;98241.06;4143043;28;20716;-93
2022/12/25 05:09:05;;;;;;;6.23;2.77;;;;;;;10.39;100.00;98236.25;4148415;28;20675;-94
2022/12/25 05:11:16;;;;;;;4.57;2.80;;;;;;;10.35;100.00;98234.75;4121058;28;20632;-94
2022/12/25 05:16:14;;;;;;;4.63;2.90;;;;;;;10.33;100.00;98234.88;4171137;28;20633;-93
2022/12/25 05:18:34;;;;;;;4.47;2.70;;;;;;;10.32;100.00;98231.53;4139724;28;20634;-94
2022/12/25 05:26:16;;;;;;;2.80;2.40;;;;;;;10.25;100.00;98227.63;4141180;28;20639;-93
2022/12/25 05:28:34;;;;;;;4.20;2.80;;;;;;;10.24;100.00;98226.81;4158810;28;20638;-95
2022/12/25 05:30:50;;;;;;;5.10;3.27;;;;;;;10.23;100.00;98222.53;4173503;28;20633;-93
2022/12/25 05:32:58;;;;;;;4.80;3.97;;;;;;;10.19;100.00;98221.03;4127416;28;21207;-93
2022/12/25 05:35:07;;;;;;;6.20;4.40;;;;;;;10.17;100.00;98211.66;4148004;28;20630;-95
2022/12/25 05:37:12;;;;;;;6.40;4.70;;;;;;;10.18;100.00;98215.94;4142928;28;20641;-94
2022/12/25 05:39:16;;;;;;;7.30;5.37;;;;;;;10.15;100.00;98205.69;4148106;28;20813;-94
2022/12/25 05:41:20;;;;;;;11.10;6.40;;;;;;;10.12;100.00;98217.19;4144261;28;20652;-95
2022/12/25 05:43:24;;;;;;;9.27;6.00;;;;;;;10.14;100.00;98214.47;4154315;28;20657;-92
2022/12/25 05:45:28;;;;;;;7.47;5.90;;;;;;;10.11;100.00;98214.66;4169387;28;20763;-93
2022/12/25 05:47:32;;;;;;;7.43;5.50;;;;;;;10.08;100.00;98205.28;4163142;28;20649;-94
2022/12/25 05:49:37;;;;;;;8.63;6.10;;;;;;;10.08;100.00;98215.69;4148017;28;20653;-93
2022/12/25 05:51:41;;;;;;;8.43;6.80;;;;;;;10.04;100.00;98208.16;4145156;28;20625;-94
2022/12/25 05:53:45;;;;;;;8.60;6.40;;;;;;;10.01;100.00;98204.00;4150200;28;21184;-94
2022/12/25 05:55:48;;;;;;;7.23;6.40;;;;;;;9.99;100.00;98195.44;4146957;28;20631;-95
2022/12/25 05:57:52;;;;;;;8.73;6.67;;;;;;;9.99;100.00;98210.25;4163009;28;20649;-95
2022/12/25 05:59:56;;;;;;;7.73;6.50;;;;;;;9.95;100.00;98193.13;4140542;28;21119;-95
2022/12/25 06:02:00;;;;;;;8.37;6.70;;;;;;;9.91;99.84;98192.47;4172386;28;20648;-95
2022/12/25 06:04:04;;;;;;;7.50;6.80;;;;;;;9.89;100.00;98176.09;4176778;28;20636;-94
2022/12/25 06:06:16;;;;;;;6.67;6.00;;;;;;;9.90;100.00;98175.16;4198038;28;21219;-95
2022/12/25 06:08:20;;;;;;;9.50;6.33;;;;;;;9.84;100.00;98168.69;4146544;28;21066;-95
2022/12/25 06:10:24;;;;;;;6.70;6.10;;;;;;;9.82;100.00;98175.75;4139049;28;20686;-94
2022/12/25 06:12:29;;;;;;;6.80;6.10;;;;;;;9.82;100.00;98176.59;4145901;28;20340;-96
2022/12/25 06:14:33;;;;;;;7.10;6.37;;;;;;;9.84;100.00;98170.34;4192279;28;21080;-94
2022/12/25 06:16:37;;;;;;;7.13;6.05;;;;;;;9.84;100.00;98175.53;4144247;28;20641;-95
2022/12/25 06:18:42;;;;;;;7.13;6.43;;;;;;;9.84;100.00;98173.91;4175936;28;20210;-94
2022/12/25 06:20:46;;;;;;;6.50;5.90;;;;;;;9.81;100.00;98167.09;4138654;28;20648;-95
2022/12/25 06:22:51;;;;;;;11.20;6.10;;;;;;;9.79;100.00;98181.16;4173215;28;20648;-94
2022/12/25 06:24:55;;;;;;;7.07;6.37;;;;;;;9.76;100.00;98179.59;4158584;28;20668;-95
2022/12/25 06:26:59;;;;;;;6.78;6.18;;;;;;;9.76;100.00;98181.34;4145602;28;21220;-94
2022/12/25 06:29:03;;;;;;;7.57;6.30;;;;;;;9.70;100.00;98176.56;4149698;28;20766;-95
2022/12/25 06:31:07;;;;;;;6.13;5.53;;;;;;;9.70;100.00;98181.75;4147978;28;20645;-93
2022/12/25 06:33:11;;;;;;;7.03;5.83;;;;;;;9.72;100.00;98180.72;4149071;28;20633;-94
2022/12/25 06:35:15;;;;;;;7.18;5.85;;;;;;;9.71;100.00;98183.41;4157554;28;20634;-94
2022/12/25 06:37:19;;;;;;;9.17;6.47;;;;;;;9.65;100.00;98170.78;4147058;28;20258;-93
2022/12/25 06:39:24;;;;;;;7.15;6.03;;;;;;;9.67;100.00;98181.94;4141569;28;20645;-92
2022/12/25 06:41:30;;;;;;;6.67;5.87;;;;;;;9.63;100.00;98176.06;4139828;28;20297;-94
2022/12/25 06:43:34;;;;;;;7.55;6.75;;;;;;;9.62;100.00;98174.44;4175016;28;20659;-93
2022/12/25 06:45:37;;;;;;;7.65;5.70;;;;;;;9.62;100.00;98176.19;4141207;28;20298;-91
2022/12/25 06:47:41;;;;;;;6.33;5.30;;;;;;;9.62;100.00;98176.19;4142002;28;20236;-95
2022/12/25 06:49:44;;;;;;;6.70;6.00;;;;;;;9.59;100.00;98179.84;4174583;28;20632;-93
2022/12/25 06:51:48;;;;;;;7.73;5.70;;;;;;;9.58;100.00;98180.75;4177357;28;20642;-94
2022/12/25 06:53:52;;;;;;;7.03;6.33;;;;;;;9.60;100.00;98181.47;4144840;28;20643;-93
2022/12/25 06:56:04;;;;;;;6.60;5.63;;;;;;;9.59;100.00;98184.19;4163846;28;20621;-94
2022/12/25 06:58:07;;;;;;;7.70;6.27;;;;;;;9.62;100.00;98187.44;4178632;28;20699;-93
2022/12/25 07:00:12;;;;;;;7.20;6.17;;;;;;;9.59;100.00;98176.38;4145315;28;20630;-95
2022/12/25 07:02:18;;;;;;;6.70;6.00;;;;;;;9.60;100.00;98172.84;4174887;28;21173;-94
2022/12/25 07:04:27;;;;;;;9.90;6.07;;;;;;;9.59;100.00;98178.97;4168830;28;20225;-92
2022/12/25 07:06:31;;;;;;;9.65;6.82;;;;;;;9.59;100.00;98186.78;4164013;28;21230;-93
2022/12/25 07:08:35;;;;;;;7.00;6.27;;;;;;;9.60;100.00;98189.28;4169236;28;20348;-94
2022/12/25 07:10:38;;;;;;;7.37;6.47;;;;;;;9.60;100.00;98178.88;4142459;28;20633;-95
2022/12/25 07:12:43;;;;;;;6.90;6.23;;;;;;;9.60;100.00;98178.06;4175704;28;20632;-94
2022/12/25 07:14:50;;;;;;;5.80;5.30;;;;;;;9.59;100.00;98176.38;4185410;28;20695;-95
2022/12/25 07:16:53;;;;;;;7.22;5.93;;;;;;;9.58;100.00;98177.31;4153620;28;21272;-95
2022/12/25 07:18:59;;;;;;;8.20;7.35;;;;;;;9.55;100.00;98180.13;4146114;28;20214;-95
2022/12/25 07:21:07;;;;;;;7.82;7.03;;;;;;;9.55;100.00;98182.72;4182250;28;20247;-95
2022/12/25 07:23:11;;;;;;;7.30;6.60;;;;;;;9.57;100.00;98191.25;4180345;28;20222;-94
2022/12/25 07:25:15;;;;;;;8.73;5.80;;;;;;;9.56;100.00;98186.97;4172833;28;20675;-94
2022/12/25 07:27:18;;;;;;;8.60;6.23;;;;;;;9.59;100.00;98205.00;4144332;28;20207;-94
2022/12/25 07:29:22;;;;;;;6.90;6.07;;;;;;;9.58;100.00;98195.53;4141247;28;20729;-95
2022/12/25 07:31:26;;;;;;;6.80;5.60;;;;;;;9.62;100.00;98197.00;4151116;28;20199;-95
2022/12/25 07:33:29;;;;;;;7.70;6.30;;;;;;;9.62;100.00;98195.25;4159693;28;20758;-94
2022/12/25 07:35:32;;;;;;;6.53;5.57;;;;;;;9.63;100.00;98202.13;4176004;28;20206;-93
2022/12/25 07:37:36;;;;;;;7.40;5.73;;;;;;;9.63;100.00;98202.13;4158701;28;20677;-94
2022/12/25 07:39:39;;;;;;;7.50;6.20;;;;;;;9.64;100.00;98198.59;4157951;28;20645;-93
2022/12/25 07:41:43;;;;;;;6.43;5.82;;;;;;;9.66;100.00;98201.09;4175725;28;20624;-94
2022/12/25 07:43:51;;;;;;;9.85;6.35;;;;;;;9.60;100.00;98185.88;4173905;28;20295;-95
2022/12/25 07:45:57;;;;;;;8.35;7.20;;;;;;;9.62;100.00;98187.44;4156682;28;20747;-94
2022/12/25 07:48:01;;;;;;;9.25;8.15;;;;;;;9.64;100.00;98184.75;4172772;28;20269;-91
2022/12/25 07:50:10;;;;;;;12.10;9.50;;;;;;;9.64;100.00;98176.94;4151432;28;20195;-94
2022/12/25 07:52:14;;;;;;;12.50;11.07;;;;;;;9.64;100.00;98179.53;4144759;28;20646;-94
2022/12/25 07:54:17;;;;;;;12.30;11.03;;;;;;;9.66;100.00;98180.28;4159968;28;20638;-94
2022/12/25 07:56:22;;;;;;;14.43;11.70;;;;;;;9.64;100.00;98167.34;4166502;28;20633;-94
2022/12/25 07:58:27;;;;;;;10.47;8.03;;;;;;;9.68;100.00;98165.38;4167658;28;20641;-93
2022/12/25 08:00:31;;;;;;;9.37;7.50;;;;;;;9.67;100.00;98158.53;4162087;28;21263;-94
2022/12/25 08:02:36;;;;;;;8.53;7.27;;;;;;;9.68;100.00;98147.16;4175704;28;20632;-95
2022/12/25 08:04:40;;;;;;;8.40;7.57;;;;;;;9.69;100.00;98143.63;4188884;28;21105;-93
2022/12/25 08:06:43;;;;;;;13.27;10.27;;;;;;;9.71;100.00;98144.34;4176480;28;20638;-94
2022/12/25 08:08:47;;;;;;;17.63;14.63;;;;;;;9.73;100.00;98142.50;4160312;28;20252;-95
2022/12/25 08:10:51;;;;;;;36.70;27.30;;;;;;;9.72;100.00;98141.66;4150238;28;21087;-93
2022/12/25 08:12:56;;;;;;;41.07;30.40;;;;;;;9.66;100.00;98125.59;4169339;28;20712;-93
2022/12/25 08:15:03;;;;;;;39.60;28.43;;;;;;;9.67;100.00;98132.47;4173280;28;20635;-94
2022/12/25 08:17:08;;;;;;;38.20;27.95;;;;;;;9.67;100.00;98138.50;4157951;28;20634;-93
2022/12/25 08:19:14;;;;;;;33.70;24.40;;;;;;;9.71;100.00;98141.75;4153166;28;20207;-93
2022/12/25 08:21:20;;;;;;;11.05;8.70;;;;;;;9.71;100.00;98152.16;4149369;28;20634;-94
2022/12/25 08:23:24;;;;;;;6.60;5.90;;;;;;;9.76;100.00;98156.16;4147200;28;20203;-94
2022/12/25 08:25:27;;;;;;;7.97;6.17;;;;;;;9.77;100.00;98151.78;4150419;28;20630;-94
2022/12/25 08:27:31;;;;;;;9.43;6.50;;;;;;;9.80;100.00;98156.78;4150883;28;20666;-94
2022/12/25 08:29:35;;;;;;;7.70;6.18;;;;;;;9.80;100.00;98152.41;4162003;28;20995;-93
2022/12/25 08:31:42;;;;;;;8.87;7.07;;;;;;;9.84;100.00;98165.13;4148345;28;20211;-94
2022/12/25 08:33:50;;;;;;;9.33;7.10;;;;;;;9.88;100.00;98160.56;4165810;28;20665;-93
2022/12/25 08:35:55;;;;;;;8.93;7.75;;;;;;;9.92;100.00;98157.69;4141432;28;20756;-94
2022/12/25 08:37:59;;;;;;;8.93;8.03;;;;;;;9.94;100.00;98161.03;4173198;28;20297;-94
2022/12/25 08:40:05;;;;;;;7.67;6.27;;;;;;;10.04;100.00;98162.13;4169544;28;20641;-91
2022/12/25 08:42:09;;;;;;;7.60;5.50;;;;;;;10.07;100.00;98164.53;4151137;28;21217;-93
2022/12/25 08:44:12;;;;;;;8.53;6.60;;;;;;;10.11;100.00;98172.97;4150209;28;20670;-91
2022/12/25 08:46:15;;;;;;;8.63;6.20;;;;;;;10.13;100.00;98176.31;4155468;28;20657;-91
2022/12/25 08:48:19;;;;;;;7.43;6.23;;;;;;;10.18;100.00;98193.31;4184511;28;20672;-92
2022/12/25 08:50:22;;;;;;;8.33;6.80;;;;;;;10.22;100.00;98192.16;4166581;28;21317;-92
2022/12/25 08:52:28;;;;;;;8.03;6.30;;;;;;;10.30;100.00;98194.28;4170302;28;20628;-92
2022/12/25 08:54:32;;;;;;;9.60;6.20;;;;;;;10.36;100.00;98194.75;4184756;28;20683;-93
2022/12/25 08:56:35;;;;;;;7.13;5.88;;;;;;;10.40;100.00;98201.41;4166511;28;20682;-93
2022/12/25 08:58:39;;;;;;;7.60;5.53;;;;;;;10.44;100.00;98208.91;4155514;28;20231;-93
2022/12/25 09:00:43;;;;;;;7.10;5.90;;;;;;;10.49;100.00;98190.38;4141058;28;20630;-93
2022/12/25 09:02:47;;;;;;;15.57;13.87;;;;;;;10.52;100.00;98190.16;4156962;28;20725;-91
2022/12/25 09:04:50;;;;;;;7.70;6.80;;;;;;;10.55;100.00;98179.53;4141112;28;21466;-93
2022/12/25 09:06:54;;;;;;;11.50;9.90;;;;;;;10.60;100.00;98180.91;4153692;28;20711;-92
2022/12/25 09:08:59;;;;;;;8.67;7.77;;;;;;;10.65;100.00;98170.16;4169773;28;20679;-92
2022/12/25 09:11:03;;;;;;;9.57;7.37;;;;;;;10.73;100.00;98176.50;4171074;28;21126;-92
2022/12/25 09:13:06;;;;;;;11.63;10.53;;;;;;;10.89;100.00;98166.72;4152763;28;20649;-91
2022/12/25 09:15:10;;;;;;;9.47;7.70;;;;;;;11.08;100.00;98162.75;4138798;28;21029;-91
2022/12/25 09:17:14;;;;;;;9.23;7.00;;;;;;;11.25;100.00;98164.19;4169008;28;21018;-88
2022/12/25 09:19:17;;;;;;;8.33;7.50;;;;;;;11.38;100.00;98152.75;4168724;28;20702;-91
2022/12/25 09:21:20;;;;;;;7.80;6.87;;;;;;;11.49;99.33;98145.03;4141166;28;20665;-92
2022/12/25 09:23:23;;;;;;;8.30;7.30;;;;;;;11.58;99.85;98140.00;4154974;28;20724;-93
2022/12/25 09:25:28;;;;;;;9.17;7.30;;;;;;;11.64;100.00;98117.84;4141820;28;20699;-92
2022/12/25 09:27:31;;;;;;;8.67;7.20;;;;;;;11.67;100.00;98126.28;4137350;28;21713;-94
2022/12/25 09:29:34;;;;;;;12.17;8.43;;;;;;;11.75;100.00;98128.34;4141402;28;20697;-94
2022/12/25 09:31:38;;;;;;;9.60;6.93;;;;;;;11.83;100.00;98134.66;4142604;28;21112;-92
2022/12/25 09:33:42;;;;;;;8.20;7.40;;;;;;;11.88;100.00;98138.63;4141823;28;20750;-94
2022/12/25 09:35:54;;;;;;;8.10;7.33;;;;;;;11.96;99.90;98136.28;4142261;28;21048;-93
2022/12/25 09:37:57;;;;;;;9.50;8.50;;;;;;;12.01;99.13;98144.63;4151976;28;20637;-95
2022/12/25 09:40:17;;;;;;;12.80;11.50;;;;;;;12.12;99.71;98155.13;4170868;28;20667;-92
2022/12/25 09:42:24;;;;;;;10.50;9.50;;;;;;;12.23;100.00;98149.94;4166112;28;20675;-94
2022/12/25 09:44:29;;;;;;;9.17;7.20;;;;;;;12.32;99.78;98157.09;4153939;28;20645;-93
2022/12/25 09:46:39;;;;;;;9.80;7.20;;;;;;;12.40;98.69;98152.97;4154417;28;20661;-94
2022/12/25 09:48:47;;;;;;;7.33;5.90;;;;;;;12.52;99.14;98153.81;4140593;28;20741;-94
2022/12/25 09:50:52;;;;;;;7.43;6.50;;;;;;;12.60;99.86;98156.69;4153481;28;20641;-94
2022/12/25 09:53:00;;;;;;;7.60;6.20;;;;;;;12.66;99.69;98157.09;4136496;28;20635;-92
2022/12/25 09:55:08;;;;;;;5.80;4.63;;;;;;;12.73;98.63;98166.97;4155237;28;21674;-95
2022/12/25 09:57:15;;;;;;;5.63;4.80;;;;;;;12.76;98.09;98160.66;4169081;28;21230;-93
2022/12/25 09:59:24;;;;;;;4.43;4.00;;;;;;;12.78;98.45;98159.59;4189652;28;20639;-93
2022/12/25 10:01:34;;;;;;;6.83;4.57;;;;;;;12.90;98.87;98160.47;4155027;28;20665;-96
2022/12/25 10:03:51;;;;;;;5.20;4.70;;;;;;;12.99;98.90;98162.38;4153364;28;20660;-96
2022/12/25 10:06:11;;;;;;;5.27;4.63;;;;;;;13.09;99.04;98166.78;4167310;28;21045;-94
2022/12/25 10:08:42;;;;;;;5.10;4.60;;;;;;;13.17;99.06;98166.22;4156984;28;20630;-94
2022/12/25 10:10:50;;;;;;;5.20;4.47;;;;;;;13.24;99.59;98169.09;4159780;28;20642;-95
2022/12/25 10:13:00;;;;;;;4.80;4.30;;;;;;;13.31;98.97;98162.41;4173206;28;20682;-94
2022/12/25 10:15:18;;;;;;;4.97;4.40;;;;;;;13.37;98.27;98153.25;4171233;28;20647;-92
2022/12/25 10:17:32;;;;;;;6.07;4.23;;;;;;;13.44;97.23;98152.66;4164194;28;20688;-93
2022/12/25 10:19:41;;;;;;;5.03;3.80;;;;;;;13.52;97.25;98157.28;4167455;28;20645;-94
2022/12/25 10:21:44;;;;;;;4.47;3.90;;;;;;;13.50;96.36;98153.94;4145682;28;21015;-91
2022/12/25 10:23:50;;;;;;;4.13;3.10;;;;;;;13.56;95.93;98142.97;4159123;28;21316;-93
2022/12/25 10:25:53;;;;;;;4.77;4.07;;;;;;;13.64;96.36;98141.41;4153621;28;20669;-96
2022/12/25 10:27:59;;;;;;;4.73;3.40;;;;;;;13.68;95.40;98141.03;4142384;28;20649;-93
2022/12/25 10:30:09;;;;;;;5.70;3.50;;;;;;;13.64;94.22;98130.09;4156518;28;20631;-93
2022/12/25 10:32:14;;;;;;;5.60;3.77;;;;;;;13.55;95.69;98118.56;4154084;28;20667;-91
2022/12/25 10:34:17;;;;;;;10.20;4.23;;;;;;;13.54;96.44;98121.28;4151473;28;20651;-92
2022/12/25 10:36:23;;;;;;;4.53;3.60;;;;;;;13.54;96.70;98116.88;4152982;28;20639;-96
2022/12/25 10:38:26;;;;;;;6.10;4.23;;;;;;;13.54;96.47;98111.63;4172246;28;20683;-94
2022/12/25 10:40:36;;;;;;;5.67;4.13;;;;;;;13.58;97.12;98118.31;4141435;28;22375;-93
2022/12/25 10:42:42;;;;;;;5.23;3.97;;;;;;;13.66;96.66;98111.47;4144186;28;20634;-95
2022/12/25 10:44:55;;;;;;;9.37;4.73;;;;;;;13.73;96.68;98114.47;4144448;28;21055;-92
2022/12/25 10:47:01;;;;;;;6.60;4.57;;;;;;;13.73;97.74;98104.81;4158765;28;20642;-94
2022/12/25 10:49:06;;;;;;;4.90;4.30;;;;;;;13.73;96.46;98110.03;4154475;28;20679;-94
2022/12/25 10:51:09;;;;;;;8.83;4.63;;;;;;;13.75;96.76;98102.06;4154870;28;21199;-94
2022/12/25 10:53:19;;;;;;;10.67;4.80;;;;;;;13.80;96.47;98105.97;4137769;28;20634;-93
2022/12/25 10:55:23;;;;;;;8.10;5.00;;;;;;;13.85;97.59;98100.38;4138512;28;20823;-94
2022/12/25 10:57:31;;;;;;;6.80;5.00;;;;;;;13.88;96.95;98100.94;4154064;28;20635;-94
2022/12/25 10:59:41;;;;;;;7.80;4.70;;;;;;;13.94;96.51;98094.38;4168138;28;20747;-93
2022/12/25 11:01:44;;;;;;;7.40;5.63;;;;;;;13.95;96.71;98091.63;4147650;28;20721;-95
2022/12/25 11:03:52;;;;;;;8.60;7.10;;;;;;;13.97;97.15;98091.50;4187948;28;20634;-95
2022/12/25 11:05:57;;;;;;;8.43;7.00;;;;;;;13.97;97.27;98094.94;4143568;28;20798;-91
2022/12/25 11:08:01;;;;;;;7.30;6.17;;;;;;;13.99;97.15;98084.34;4154930;28;20739;-94
2022/12/25 11:10:25;;;;;;;10.73;8.00;;;;;;;14.00;96.26;98080.78;4175552;28;20632;-93
2022/12/25 11:12:31;;;;;;;10.97;8.20;;;;;;;14.00;96.06;98076.34;4176306;28;20665;-95
2022/12/25 11:14:34;;;;;;;12.60;9.10;;;;;;;14.01;95.70;98066.69;4140924;28;20626;-93
2022/12/25 11:16:39;;;;;;;8.87;6.43;;;;;;;14.08;96.58;98073.13;4143798;28;20644;-93
2022/12/25 11:18:47;;;;;;;8.10;6.40;;;;;;;14.17;96.41;98070.56;4140162;28;20647;-92
2022/12/25 11:20:52;;;;;;;6.97;6.10;;;;;;;14.23;95.35;98068.25;4172384;28;20635;-92
2022/12/25 11:22:57;;;;;;;10.50;5.00;;;;;;;14.29;96.87;98069.56;4171018;28;20641;-92
2022/12/25 11:25:12;;;;;;;6.90;5.40;;;;;;;14.32;97.15;98071.91;4139905;28;20645;-92
2022/12/25 11:27:22;;;;;;;6.70;5.50;;;;;;;14.32;95.84;98062.25;4154350;28;21225;-92
2022/12/25 11:29:33;;;;;;;7.20;5.50;;;;;;;14.38;95.82;98060.91;4159222;28;20724;-92
2022/12/25 11:31:39;;;;;;;6.03;5.53;;;;;;;14.44;95.31;98063.03;4153707;28;20671;-90
2022/12/25 11:33:47;;;;;;;6.90;6.20;;;;;;;14.46;96.60;98055.84;4143645;28;21167;-92
2022/12/25 11:35:52;;;;;;;5.10;4.60;;;;;;;14.44;95.80;98048.09;4160095;28;20735;-92
2022/12/25 11:37:56;;;;;;;5.10;4.57;;;;;;;14.42;96.26;98049.22;4161244;28;20642;-93
2022/12/25 11:40:00;;;;;;;10.60;5.20;;;;;;;14.39;96.36;98046.84;4164580;28;20639;-91
2022/12/25 11:42:07;;;;;;;7.73;5.13;;;;;;;14.42;97.42;98049.22;4185630;28;20733;-92
2022/12/25 11:44:25;;;;;;;6.90;6.20;;;;;;;14.46;96.88;98034.84;4156852;28;20651;-93
2022/12/25 11:46:32;;;;;;;7.83;6.93;;;;;;;14.52;98.38;98040.41;4134415;28;20670;-91
2022/12/25 11:48:54;;;;;;;11.10;7.70;;;;;;;14.55;96.94;98028.81;4166008;28;20634;-94
2022/12/25 11:51:00;;;;;;;12.00;8.17;;;;;;;14.58;97.09;98036.44;4138415;28;20650;-93